Terminal Aerodrome Forecast
Issued by NWS Shreveport, LA

Home | Current Version | Previous Version | Text Only | Print | Product List | Glossary On
Versions: 1 2 3 4 5 6 7 8 9 10 11 12 13 14 15 16 17 18 19
474
FTUS44 KSHV 310548
TAFSHV
TAF
KSHV 310548Z 3106/0106 VRB03KT P6SM FEW050 BKN150 BKN250
      TEMPO 3110/3113 6SM BR BKN015
     FM311500 17005KT P6SM BKN035 BKN250
     FM312100 20006KT P6SM SCT045 OVC250=

USA.gov is the U.S. government's official web portal to all federal, state and local government web resources and services.